Martinho Campos, Brazil
Current Conditions -  °F | °C
As of 6:00 AM on Friday 28 Nov 2014 (Local Time) from SBLS Reporting Station
Haze Haze  
Wind Chill: 70°   Ceiling: 7000
Heat Index: 70°   Visibility: 1.2mi
Dew Point: 66°   Wind: 0mph
Humidity: 88%   Direction: NA
Pressure: 30"   Gusts: NA
Location:  19.33°S, 45.24°W
Report Text: SBLS 280800Z 00000KT 2000 BR SCT015 OVC070 21/19 Q1016
Loading
Personal Weather Stations






























Interactive Weather Map New forecast layout! Learn more

10-Day Weather Forecast

Advertisements
Track Severe Weather on mobile